sensor_id;sensor_type;location;lat;lon;timestamp;P1;durP1;ratioP1;P2;durP2;ratioP2
24030;SDS011;12240;51.142;22.486;2023-07-20T00:00:57;5.72;;;3.47;;
24030;SDS011;12240;51.142;22.486;2023-07-20T00:03:25;14.27;;;4.03;;
24030;SDS011;12240;51.142;22.486;2023-07-20T00:05:53;6.32;;;3.20;;
24030;SDS011;12240;51.142;22.486;2023-07-20T00:08:21;7.22;;;3.70;;
24030;SDS011;12240;51.142;22.486;2023-07-20T00:10:50;6.55;;;3.35;;
24030;SDS011;12240;51.142;22.486;2023-07-20T00:13:18;9.15;;;3.50;;
24030;SDS011;12240;51.142;22.486;2023-07-20T00:15:48;10.93;;;3.85;;
24030;SDS011;12240;51.142;22.486;2023-07-20T00:18:17;8.13;;;3.63;;
24030;SDS011;12240;51.142;22.486;2023-07-20T00:20:49;8.32;;;3.63;;
24030;SDS011;12240;51.142;22.486;2023-07-20T00:23:18;6.80;;;3.42;;
24030;SDS011;12240;51.142;22.486;2023-07-20T00:25:50;10.70;;;3.70;;
24030;SDS011;12240;51.142;22.486;2023-07-20T00:28:18;9.10;;;3.63;;
24030;SDS011;12240;51.142;22.486;2023-07-20T00:30:48;7.03;;;3.60;;
24030;SDS011;12240;51.142;22.486;2023-07-20T00:33:17;6.68;;;3.38;;
24030;SDS011;12240;51.142;22.486;2023-07-20T00:35:46;5.38;;;3.13;;
24030;SDS011;12240;51.142;22.486;2023-07-20T00:38:16;10.10;;;3.25;;
24030;SDS011;12240;51.142;22.486;2023-07-20T00:40:44;7.40;;;3.38;;
24030;SDS011;12240;51.142;22.486;2023-07-20T00:43:12;7.53;;;3.65;;
24030;SDS011;12240;51.142;22.486;2023-07-20T00:45:40;7.00;;;3.50;;
24030;SDS011;12240;51.142;22.486;2023-07-20T00:48:09;6.32;;;3.58;;
24030;SDS011;12240;51.142;22.486;2023-07-20T00:50:38;12.32;;;3.38;;
24030;SDS011;12240;51.142;22.486;2023-07-20T00:53:08;6.32;;;3.65;;
24030;SDS011;12240;51.142;22.486;2023-07-20T00:55:37;8.13;;;4.00;;
24030;SDS011;12240;51.142;22.486;2023-07-20T00:58:06;7.85;;;3.47;;
24030;SDS011;12240;51.142;22.486;2023-07-20T01:00:35;7.68;;;3.95;;
24030;SDS011;12240;51.142;22.486;2023-07-20T01:03:03;10.82;;;4.25;;
24030;SDS011;12240;51.142;22.486;2023-07-20T01:05:35;9.77;;;4.15;;
24030;SDS011;12240;51.142;22.486;2023-07-20T01:11:38;9.98;;;3.90;;
24030;SDS011;12240;51.142;22.486;2023-07-20T01:14:40;8.75;;;3.38;;
24030;SDS011;12240;51.142;22.486;2023-07-20T01:17:08;9.98;;;3.70;;
24030;SDS011;12240;51.142;22.486;2023-07-20T01:19:36;6.72;;;3.67;;
24030;SDS011;12240;51.142;22.486;2023-07-20T01:33:50;13.10;;;4.05;;
24030;SDS011;12240;51.142;22.486;2023-07-20T01:36:22;8.90;;;3.90;;
24030;SDS011;12240;51.142;22.486;2023-07-20T01:38:53;7.25;;;3.35;;
24030;SDS011;12240;51.142;22.486;2023-07-20T01:41:23;9.50;;;3.30;;
24030;SDS011;12240;51.142;22.486;2023-07-20T01:43:51;13.50;;;4.00;;
24030;SDS011;12240;51.142;22.486;2023-07-20T01:46:19;8.07;;;3.67;;
24030;SDS011;12240;51.142;22.486;2023-07-20T01:48:48;7.30;;;3.60;;
24030;SDS011;12240;51.142;22.486;2023-07-20T01:51:18;6.70;;;4.20;;
24030;SDS011;12240;51.142;22.486;2023-07-20T01:53:48;12.00;;;4.07;;
24030;SDS011;12240;51.142;22.486;2023-07-20T01:56:16;8.57;;;3.35;;
24030;SDS011;12240;51.142;22.486;2023-07-20T01:58:45;10.75;;;3.85;;
24030;SDS011;12240;51.142;22.486;2023-07-20T02:01:13;5.68;;;3.15;;
24030;SDS011;12240;51.142;22.486;2023-07-20T02:03:41;7.55;;;3.25;;
24030;SDS011;12240;51.142;22.486;2023-07-20T02:06:09;6.78;;;3.83;;
24030;SDS011;12240;51.142;22.486;2023-07-20T02:08:37;8.70;;;4.07;;
24030;SDS011;12240;51.142;22.486;2023-07-20T02:11:05;7.50;;;3.78;;
24030;SDS011;12240;51.142;22.486;2023-07-20T02:13:33;8.30;;;3.55;;
24030;SDS011;12240;51.142;22.486;2023-07-20T02:16:01;7.63;;;3.95;;
24030;SDS011;12240;51.142;22.486;2023-07-20T02:18:30;6.35;;;3.60;;
24030;SDS011;12240;51.142;22.486;2023-07-20T02:20:58;7.10;;;3.65;;
24030;SDS011;12240;51.142;22.486;2023-07-20T02:23:26;7.95;;;3.50;;
24030;SDS011;12240;51.142;22.486;2023-07-20T02:25:54;6.03;;;3.28;;
24030;SDS011;12240;51.142;22.486;2023-07-20T02:28:22;6.45;;;3.35;;
24030;SDS011;12240;51.142;22.486;2023-07-20T02:30:51;6.93;;;3.22;;
24030;SDS011;12240;51.142;22.486;2023-07-20T02:33:19;9.10;;;3.55;;
24030;SDS011;12240;51.142;22.486;2023-07-20T02:35:48;5.25;;;3.08;;
24030;SDS011;12240;51.142;22.486;2023-07-20T02:38:18;8.10;;;3.22;;
24030;SDS011;12240;51.142;22.486;2023-07-20T02:40:47;6.18;;;3.17;;
24030;SDS011;12240;51.142;22.486;2023-07-20T02:43:15;9.93;;;3.38;;
24030;SDS011;12240;51.142;22.486;2023-07-20T02:45:45;9.07;;;3.40;;
24030;SDS011;12240;51.142;22.486;2023-07-20T02:48:14;7.88;;;3.20;;
24030;SDS011;12240;51.142;22.486;2023-07-20T02:50:43;10.27;;;3.17;;
24030;SDS011;12240;51.142;22.486;2023-07-20T02:53:11;6.95;;;3.30;;
24030;SDS011;12240;51.142;22.486;2023-07-20T02:55:39;6.50;;;4.00;;
24030;SDS011;12240;51.142;22.486;2023-07-20T02:58:08;8.55;;;3.17;;
24030;SDS011;12240;51.142;22.486;2023-07-20T03:00:35;8.60;;;3.58;;
24030;SDS011;12240;51.142;22.486;2023-07-20T03:03:04;10.25;;;3.35;;
24030;SDS011;12240;51.142;22.486;2023-07-20T03:05:40;7.60;;;3.55;;
24030;SDS011;12240;51.142;22.486;2023-07-20T03:08:09;9.68;;;3.33;;
24030;SDS011;12240;51.142;22.486;2023-07-20T03:10:40;8.32;;;3.70;;
24030;SDS011;12240;51.142;22.486;2023-07-20T03:13:08;8.88;;;4.00;;
24030;SDS011;12240;51.142;22.486;2023-07-20T03:15:38;11.73;;;3.63;;
24030;SDS011;12240;51.142;22.486;2023-07-20T03:18:06;12.00;;;3.42;;
24030;SDS011;12240;51.142;22.486;2023-07-20T03:20:35;9.10;;;3.55;;
24030;SDS011;12240;51.142;22.486;2023-07-20T03:23:05;10.48;;;4.15;;
24030;SDS011;12240;51.142;22.486;2023-07-20T03:25:33;11.07;;;3.78;;
24030;SDS011;12240;51.142;22.486;2023-07-20T03:28:01;9.23;;;3.90;;
24030;SDS011;12240;51.142;22.486;2023-07-20T03:30:30;11.05;;;3.78;;
24030;SDS011;12240;51.142;22.486;2023-07-20T03:32:58;9.02;;;3.85;;
24030;SDS011;12240;51.142;22.486;2023-07-20T03:35:26;10.73;;;3.60;;
24030;SDS011;12240;51.142;22.486;2023-07-20T03:37:54;8.13;;;3.72;;
24030;SDS011;12240;51.142;22.486;2023-07-20T03:40:22;12.10;;;4.40;;
24030;SDS011;12240;51.142;22.486;2023-07-20T03:42:51;9.25;;;3.83;;
24030;SDS011;12240;51.142;22.486;2023-07-20T03:45:19;6.20;;;3.72;;
24030;SDS011;12240;51.142;22.486;2023-07-20T03:47:51;6.88;;;3.65;;
24030;SDS011;12240;51.142;22.486;2023-07-20T03:50:19;10.48;;;3.83;;
24030;SDS011;12240;51.142;22.486;2023-07-20T03:52:47;5.47;;;3.28;;
24030;SDS011;12240;51.142;22.486;2023-07-20T03:55:16;8.40;;;3.42;;
24030;SDS011;12240;51.142;22.486;2023-07-20T03:57:44;7.68;;;4.15;;
24030;SDS011;12240;51.142;22.486;2023-07-20T04:00:12;8.15;;;3.50;;
24030;SDS011;12240;51.142;22.486;2023-07-20T04:02:41;6.93;;;3.28;;
24030;SDS011;12240;51.142;22.486;2023-07-20T04:05:10;12.43;;;4.20;;
24030;SDS011;12240;51.142;22.486;2023-07-20T04:07:38;15.50;;;3.90;;
24030;SDS011;12240;51.142;22.486;2023-07-20T04:10:06;9.63;;;4.00;;
24030;SDS011;12240;51.142;22.486;2023-07-20T04:12:35;6.85;;;3.55;;
24030;SDS011;12240;51.142;22.486;2023-07-20T04:15:03;9.15;;;3.80;;
24030;SDS011;12240;51.142;22.486;2023-07-20T04:17:34;14.07;;;3.78;;
24030;SDS011;12240;51.142;22.486;2023-07-20T04:20:02;9.95;;;3.72;;
24030;SDS011;12240;51.142;22.486;2023-07-20T04:22:31;9.63;;;3.75;;
24030;SDS011;12240;51.142;22.486;2023-07-20T04:25:00;10.40;;;3.67;;
24030;SDS011;12240;51.142;22.486;2023-07-20T04:27:28;11.88;;;3.83;;
24030;SDS011;12240;51.142;22.486;2023-07-20T04:30:00;12.30;;;3.92;;
24030;SDS011;12240;51.142;22.486;2023-07-20T04:32:29;8.40;;;3.55;;
24030;SDS011;12240;51.142;22.486;2023-07-20T04:35:05;14.75;;;3.80;;
24030;SDS011;12240;51.142;22.486;2023-07-20T04:37:40;8.77;;;3.67;;
24030;SDS011;12240;51.142;22.486;2023-07-20T04:40:16;7.70;;;3.45;;
24030;SDS011;12240;51.142;22.486;2023-07-20T04:42:44;10.35;;;3.65;;
24030;SDS011;12240;51.142;22.486;2023-07-20T04:45:13;8.70;;;3.45;;
24030;SDS011;12240;51.142;22.486;2023-07-20T04:47:41;8.13;;;4.00;;
24030;SDS011;12240;51.142;22.486;2023-07-20T04:50:09;12.40;;;4.57;;
24030;SDS011;12240;51.142;22.486;2023-07-20T04:52:37;12.00;;;5.45;;
24030;SDS011;12240;51.142;22.486;2023-07-20T04:55:14;9.40;;;5.47;;
24030;SDS011;12240;51.142;22.486;2023-07-20T04:57:42;9.77;;;5.25;;
24030;SDS011;12240;51.142;22.486;2023-07-20T05:00:11;12.85;;;6.03;;
24030;SDS011;12240;51.142;22.486;2023-07-20T05:02:41;17.60;;;5.95;;
24030;SDS011;12240;51.142;22.486;2023-07-20T05:05:11;13.90;;;7.15;;
24030;SDS011;12240;51.142;22.486;2023-07-20T05:07:39;20.48;;;8.18;;
24030;SDS011;12240;51.142;22.486;2023-07-20T05:10:07;12.38;;;7.68;;
24030;SDS011;12240;51.142;22.486;2023-07-20T05:12:35;21.15;;;7.22;;
24030;SDS011;12240;51.142;22.486;2023-07-20T05:15:04;20.10;;;8.13;;
24030;SDS011;12240;51.142;22.486;2023-07-20T05:17:33;12.45;;;7.90;;
24030;SDS011;12240;51.142;22.486;2023-07-20T05:20:01;17.17;;;7.03;;
24030;SDS011;12240;51.142;22.486;2023-07-20T05:22:32;14.90;;;8.13;;
24030;SDS011;12240;51.142;22.486;2023-07-20T05:25:01;15.02;;;7.82;;
24030;SDS011;12240;51.142;22.486;2023-07-20T05:27:29;15.93;;;7.55;;
24030;SDS011;12240;51.142;22.486;2023-07-20T05:29:57;15.15;;;7.38;;
24030;SDS011;12240;51.142;22.486;2023-07-20T05:32:25;14.25;;;7.32;;
24030;SDS011;12240;51.142;22.486;2023-07-20T05:34:54;16.80;;;8.20;;
24030;SDS011;12240;51.142;22.486;2023-07-20T05:37:24;14.73;;;7.20;;
24030;SDS011;12240;51.142;22.486;2023-07-20T05:39:52;19.40;;;7.85;;
24030;SDS011;12240;51.142;22.486;2023-07-20T05:42:21;16.63;;;7.53;;
24030;SDS011;12240;51.142;22.486;2023-07-20T05:44:49;13.60;;;7.43;;
24030;SDS011;12240;51.142;22.486;2023-07-20T05:47:20;17.43;;;7.17;;
24030;SDS011;12240;51.142;22.486;2023-07-20T05:49:48;17.85;;;7.47;;
24030;SDS011;12240;51.142;22.486;2023-07-20T05:52:17;15.75;;;7.38;;
24030;SDS011;12240;51.142;22.486;2023-07-20T05:54:45;11.98;;;7.22;;
24030;SDS011;12240;51.142;22.486;2023-07-20T05:57:13;11.00;;;6.63;;
24030;SDS011;12240;51.142;22.486;2023-07-20T05:59:41;16.83;;;7.22;;
24030;SDS011;12240;51.142;22.486;2023-07-20T06:02:11;17.55;;;7.90;;
24030;SDS011;12240;51.142;22.486;2023-07-20T06:04:39;13.32;;;7.45;;
24030;SDS011;12240;51.142;22.486;2023-07-20T06:07:08;11.88;;;6.30;;
24030;SDS011;12240;51.142;22.486;2023-07-20T06:09:37;14.77;;;6.85;;
24030;SDS011;12240;51.142;22.486;2023-07-20T06:12:05;16.67;;;7.13;;
24030;SDS011;12240;51.142;22.486;2023-07-20T06:14:34;13.32;;;6.93;;
24030;SDS011;12240;51.142;22.486;2023-07-20T06:17:03;14.25;;;8.05;;
24030;SDS011;12240;51.142;22.486;2023-07-20T06:19:32;15.57;;;7.63;;
24030;SDS011;12240;51.142;22.486;2023-07-20T06:22:00;15.63;;;7.93;;
24030;SDS011;12240;51.142;22.486;2023-07-20T06:24:28;13.32;;;6.68;;
24030;SDS011;12240;51.142;22.486;2023-07-20T06:26:57;16.38;;;8.45;;
24030;SDS011;12240;51.142;22.486;2023-07-20T06:29:25;16.10;;;9.13;;
24030;SDS011;12240;51.142;22.486;2023-07-20T06:31:53;17.73;;;9.05;;
24030;SDS011;12240;51.142;22.486;2023-07-20T06:34:22;15.25;;;8.82;;
24030;SDS011;12240;51.142;22.486;2023-07-20T06:36:50;15.77;;;8.88;;
24030;SDS011;12240;51.142;22.486;2023-07-20T06:39:19;17.38;;;8.07;;
24030;SDS011;12240;51.142;22.486;2023-07-20T06:41:51;18.13;;;8.35;;
24030;SDS011;12240;51.142;22.486;2023-07-20T06:44:22;17.73;;;8.30;;
24030;SDS011;12240;51.142;22.486;2023-07-20T06:46:50;14.27;;;7.57;;
24030;SDS011;12240;51.142;22.486;2023-07-20T06:49:25;15.27;;;9.45;;
24030;SDS011;12240;51.142;22.486;2023-07-20T06:51:54;14.95;;;8.10;;
24030;SDS011;12240;51.142;22.486;2023-07-20T06:54:23;19.33;;;8.43;;
24030;SDS011;12240;51.142;22.486;2023-07-20T06:56:51;14.02;;;7.55;;
24030;SDS011;12240;51.142;22.486;2023-07-20T06:59:23;16.55;;;8.07;;
24030;SDS011;12240;51.142;22.486;2023-07-20T07:01:52;15.55;;;7.45;;
24030;SDS011;12240;51.142;22.486;2023-07-20T07:04:20;16.15;;;7.78;;
24030;SDS011;12240;51.142;22.486;2023-07-20T07:06:48;16.30;;;7.43;;
24030;SDS011;12240;51.142;22.486;2023-07-20T07:09:17;13.35;;;6.72;;
24030;SDS011;12240;51.142;22.486;2023-07-20T07:11:46;19.70;;;7.88;;
24030;SDS011;12240;51.142;22.486;2023-07-20T07:14:14;18.88;;;7.40;;
24030;SDS011;12240;51.142;22.486;2023-07-20T07:16:42;15.43;;;8.02;;
24030;SDS011;12240;51.142;22.486;2023-07-20T07:19:11;13.60;;;6.72;;
24030;SDS011;12240;51.142;22.486;2023-07-20T07:21:39;15.05;;;7.35;;
24030;SDS011;12240;51.142;22.486;2023-07-20T07:24:07;14.20;;;6.10;;
24030;SDS011;12240;51.142;22.486;2023-07-20T07:26:37;17.92;;;6.75;;
24030;SDS011;12240;51.142;22.486;2023-07-20T07:29:06;15.30;;;7.03;;
24030;SDS011;12240;51.142;22.486;2023-07-20T07:31:34;9.95;;;6.22;;
24030;SDS011;12240;51.142;22.486;2023-07-20T07:34:03;18.92;;;6.25;;
24030;SDS011;12240;51.142;22.486;2023-07-20T07:36:32;11.90;;;6.10;;
24030;SDS011;12240;51.142;22.486;2023-07-20T07:39:01;10.80;;;6.07;;
24030;SDS011;12240;51.142;22.486;2023-07-20T07:41:49;13.02;;;6.65;;
24030;SDS011;12240;51.142;22.486;2023-07-20T07:44:17;13.38;;;6.25;;
24030;SDS011;12240;51.142;22.486;2023-07-20T07:46:46;14.40;;;6.65;;
24030;SDS011;12240;51.142;22.486;2023-07-20T07:49:15;16.00;;;7.05;;
24030;SDS011;12240;51.142;22.486;2023-07-20T07:51:44;11.48;;;6.05;;
24030;SDS011;12240;51.142;22.486;2023-07-20T07:54:12;14.00;;;6.53;;
24030;SDS011;12240;51.142;22.486;2023-07-20T07:56:40;16.45;;;6.22;;
24030;SDS011;12240;51.142;22.486;2023-07-20T07:59:10;15.32;;;6.30;;
24030;SDS011;12240;51.142;22.486;2023-07-20T08:01:39;15.18;;;7.07;;
24030;SDS011;12240;51.142;22.486;2023-07-20T08:04:07;14.70;;;7.18;;
24030;SDS011;12240;51.142;22.486;2023-07-20T08:06:35;15.13;;;7.07;;
24030;SDS011;12240;51.142;22.486;2023-07-20T08:09:04;16.92;;;6.78;;
24030;SDS011;12240;51.142;22.486;2023-07-20T08:11:32;17.70;;;8.48;;
24030;SDS011;12240;51.142;22.486;2023-07-20T08:14:01;18.35;;;6.90;;
24030;SDS011;12240;51.142;22.486;2023-07-20T08:16:29;17.08;;;7.82;;
24030;SDS011;12240;51.142;22.486;2023-07-20T08:18:57;11.82;;;6.65;;
24030;SDS011;12240;51.142;22.486;2023-07-20T08:21:27;18.25;;;6.78;;
24030;SDS011;12240;51.142;22.486;2023-07-20T08:23:55;10.90;;;6.38;;
24030;SDS011;12240;51.142;22.486;2023-07-20T08:26:23;13.57;;;5.63;;
24030;SDS011;12240;51.142;22.486;2023-07-20T08:28:52;10.18;;;5.15;;
24030;SDS011;12240;51.142;22.486;2023-07-20T08:31:21;7.88;;;4.57;;
24030;SDS011;12240;51.142;22.486;2023-07-20T08:33:49;15.52;;;4.93;;
24030;SDS011;12240;51.142;22.486;2023-07-20T08:36:17;6.80;;;4.45;;
24030;SDS011;12240;51.142;22.486;2023-07-20T08:38:46;8.63;;;4.18;;
24030;SDS011;12240;51.142;22.486;2023-07-20T08:41:15;6.72;;;3.90;;
24030;SDS011;12240;51.142;22.486;2023-07-20T08:43:44;6.65;;;3.70;;
24030;SDS011;12240;51.142;22.486;2023-07-20T08:46:15;8.57;;;3.28;;
24030;SDS011;12240;51.142;22.486;2023-07-20T08:48:44;8.68;;;3.25;;
24030;SDS011;12240;51.142;22.486;2023-07-20T08:51:13;7.70;;;3.33;;
24030;SDS011;12240;51.142;22.486;2023-07-20T08:53:43;7.10;;;3.35;;
24030;SDS011;12240;51.142;22.486;2023-07-20T08:56:15;6.20;;;3.30;;
24030;SDS011;12240;51.142;22.486;2023-07-20T08:58:44;8.82;;;3.08;;
24030;SDS011;12240;51.142;22.486;2023-07-20T09:01:13;7.40;;;3.00;;
24030;SDS011;12240;51.142;22.486;2023-07-20T09:03:42;6.32;;;3.20;;
24030;SDS011;12240;51.142;22.486;2023-07-20T09:06:13;7.40;;;3.33;;
24030;SDS011;12240;51.142;22.486;2023-07-20T09:08:42;4.80;;;2.92;;
24030;SDS011;12240;51.142;22.486;2023-07-20T09:11:11;6.70;;;2.90;;
24030;SDS011;12240;51.142;22.486;2023-07-20T09:13:41;6.93;;;2.70;;
24030;SDS011;12240;51.142;22.486;2023-07-20T09:16:11;5.68;;;2.75;;
24030;SDS011;12240;51.142;22.486;2023-07-20T09:18:42;5.22;;;2.72;;
24030;SDS011;12240;51.142;22.486;2023-07-20T09:21:10;4.03;;;2.55;;
24030;SDS011;12240;51.142;22.486;2023-07-20T09:23:38;6.93;;;2.88;;
24030;SDS011;12240;51.142;22.486;2023-07-20T09:26:10;5.47;;;2.70;;
24030;SDS011;12240;51.142;22.486;2023-07-20T09:28:43;7.13;;;2.40;;
24030;SDS011;12240;51.142;22.486;2023-07-20T09:31:22;4.85;;;2.35;;
24030;SDS011;12240;51.142;22.486;2023-07-20T09:33:52;6.47;;;2.40;;
24030;SDS011;12240;51.142;22.486;2023-07-20T09:36:26;5.60;;;2.55;;
24030;SDS011;12240;51.142;22.486;2023-07-20T09:38:58;6.57;;;2.60;;
24030;SDS011;12240;51.142;22.486;2023-07-20T09:41:30;4.97;;;2.42;;
24030;SDS011;12240;51.142;22.486;2023-07-20T09:44:14;4.82;;;2.08;;
24030;SDS011;12240;51.142;22.486;2023-07-20T09:46:46;4.70;;;2.22;;
24030;SDS011;12240;51.142;22.486;2023-07-20T09:49:19;5.03;;;2.30;;
24030;SDS011;12240;51.142;22.486;2023-07-20T09:51:50;6.97;;;2.90;;
24030;SDS011;12240;51.142;22.486;2023-07-20T09:54:21;7.13;;;2.53;;
24030;SDS011;12240;51.142;22.486;2023-07-20T09:56:50;4.50;;;2.35;;
24030;SDS011;12240;51.142;22.486;2023-07-20T09:59:20;2.63;;;1.88;;
24030;SDS011;12240;51.142;22.486;2023-07-20T10:01:48;4.72;;;2.30;;
24030;SDS011;12240;51.142;22.486;2023-07-20T10:04:20;7.20;;;3.22;;
24030;SDS011;12240;51.142;22.486;2023-07-20T10:06:56;10.07;;;2.65;;
24030;SDS011;12240;51.142;22.486;2023-07-20T10:09:29;5.13;;;2.22;;
24030;SDS011;12240;51.142;22.486;2023-07-20T10:12:00;4.75;;;2.13;;
24030;SDS011;12240;51.142;22.486;2023-07-20T10:14:44;4.53;;;1.85;;
24030;SDS011;12240;51.142;22.486;2023-07-20T10:17:37;4.60;;;1.58;;
24030;SDS011;12240;51.142;22.486;2023-07-20T10:20:17;3.08;;;1.85;;
24030;SDS011;12240;51.142;22.486;2023-07-20T10:22:49;4.35;;;2.25;;
24030;SDS011;12240;51.142;22.486;2023-07-20T10:25:24;3.95;;;1.92;;
24030;SDS011;12240;51.142;22.486;2023-07-20T10:27:52;4.55;;;1.75;;
24030;SDS011;12240;51.142;22.486;2023-07-20T10:30:21;4.63;;;1.83;;
24030;SDS011;12240;51.142;22.486;2023-07-20T10:32:50;5.55;;;1.85;;
24030;SDS011;12240;51.142;22.486;2023-07-20T10:35:20;5.38;;;1.42;;
24030;SDS011;12240;51.142;22.486;2023-07-20T10:37:49;5.07;;;1.70;;
24030;SDS011;12240;51.142;22.486;2023-07-20T10:43:08;4.97;;;1.65;;
24030;SDS011;12240;51.142;22.486;2023-07-20T10:45:41;2.85;;;1.52;;
24030;SDS011;12240;51.142;22.486;2023-07-20T10:51:08;3.22;;;1.60;;
24030;SDS011;12240;51.142;22.486;2023-07-20T10:53:48;3.25;;;1.42;;
24030;SDS011;12240;51.142;22.486;2023-07-20T10:56:20;2.80;;;1.30;;
24030;SDS011;12240;51.142;22.486;2023-07-20T10:58:54;2.45;;;1.23;;
24030;SDS011;12240;51.142;22.486;2023-07-20T11:01:35;2.33;;;1.20;;
24030;SDS011;12240;51.142;22.486;2023-07-20T11:04:05;1.73;;;1.42;;
24030;SDS011;12240;51.142;22.486;2023-07-20T11:06:36;8.35;;;1.58;;
24030;SDS011;12240;51.142;22.486;2023-07-20T11:09:09;3.13;;;1.70;;
24030;SDS011;12240;51.142;22.486;2023-07-20T11:14:21;3.10;;;1.50;;
24030;SDS011;12240;51.142;22.486;2023-07-20T11:16:54;4.72;;;2.08;;
24030;SDS011;12240;51.142;22.486;2023-07-20T11:19:23;3.72;;;1.75;;
24030;SDS011;12240;51.142;22.486;2023-07-20T11:21:56;3.20;;;1.83;;
24030;SDS011;12240;51.142;22.486;2023-07-20T11:24:30;4.28;;;1.30;;
24030;SDS011;12240;51.142;22.486;2023-07-20T11:27:00;3.78;;;1.67;;
24030;SDS011;12240;51.142;22.486;2023-07-20T11:29:29;2.60;;;1.50;;
24030;SDS011;12240;51.142;22.486;2023-07-20T11:32:02;3.20;;;1.63;;
24030;SDS011;12240;51.142;22.486;2023-07-20T11:34:33;4.00;;;1.58;;
24030;SDS011;12240;51.142;22.486;2023-07-20T11:37:02;5.20;;;1.75;;
24030;SDS011;12240;51.142;22.486;2023-07-20T11:39:36;2.20;;;1.40;;
24030;SDS011;12240;51.142;22.486;2023-07-20T11:42:04;4.32;;;1.55;;
24030;SDS011;12240;51.142;22.486;2023-07-20T11:44:34;3.97;;;1.75;;
24030;SDS011;12240;51.142;22.486;2023-07-20T11:49:36;7.38;;;1.60;;
24030;SDS011;12240;51.142;22.486;2023-07-20T11:52:07;3.15;;;1.63;;
24030;SDS011;12240;51.142;22.486;2023-07-20T11:54:43;2.58;;;1.50;;
24030;SDS011;12240;51.142;22.486;2023-07-20T11:57:19;5.18;;;1.70;;
24030;SDS011;12240;51.142;22.486;2023-07-20T11:59:57;3.35;;;1.40;;
24030;SDS011;12240;51.142;22.486;2023-07-20T12:02:38;2.95;;;1.50;;
24030;SDS011;12240;51.142;22.486;2023-07-20T12:05:07;2.55;;;1.45;;
24030;SDS011;12240;51.142;22.486;2023-07-20T12:07:36;3.17;;;1.55;;
24030;SDS011;12240;51.142;22.486;2023-07-20T12:10:08;5.65;;;1.60;;
24030;SDS011;12240;51.142;22.486;2023-07-20T12:12:41;3.63;;;1.70;;
24030;SDS011;12240;51.142;22.486;2023-07-20T12:15:12;3.42;;;1.30;;
24030;SDS011;12240;51.142;22.486;2023-07-20T12:17:58;2.60;;;1.58;;
24030;SDS011;12240;51.142;22.486;2023-07-20T12:23:04;2.38;;;1.67;;
24030;SDS011;12240;51.142;22.486;2023-07-20T12:25:40;4.40;;;1.58;;
24030;SDS011;12240;51.142;22.486;2023-07-20T12:28:16;2.42;;;1.60;;
24030;SDS011;12240;51.142;22.486;2023-07-20T12:30:47;1.90;;;1.42;;
24030;SDS011;12240;51.142;22.486;2023-07-20T12:33:24;2.15;;;1.40;;
24030;SDS011;12240;51.142;22.486;2023-07-20T12:35:52;3.42;;;1.63;;
24030;SDS011;12240;51.142;22.486;2023-07-20T12:38:25;5.03;;;1.30;;
24030;SDS011;12240;51.142;22.486;2023-07-20T12:40:55;3.45;;;1.73;;
24030;SDS011;12240;51.142;22.486;2023-07-20T12:43:23;3.20;;;1.52;;
24030;SDS011;12240;51.142;22.486;2023-07-20T12:45:53;5.10;;;1.67;;
24030;SDS011;12240;51.142;22.486;2023-07-20T12:48:22;4.38;;;1.77;;
24030;SDS011;12240;51.142;22.486;2023-07-20T12:50:50;5.20;;;2.20;;
24030;SDS011;12240;51.142;22.486;2023-07-20T12:53:19;5.30;;;2.10;;
24030;SDS011;12240;51.142;22.486;2023-07-20T12:55:48;4.30;;;2.75;;
24030;SDS011;12240;51.142;22.486;2023-07-20T12:58:17;5.10;;;2.53;;
24030;SDS011;12240;51.142;22.486;2023-07-20T13:00:45;8.38;;;2.78;;
24030;SDS011;12240;51.142;22.486;2023-07-20T13:03:13;4.50;;;2.45;;
24030;SDS011;12240;51.142;22.486;2023-07-20T13:05:46;8.45;;;2.72;;
24030;SDS011;12240;51.142;22.486;2023-07-20T13:08:18;4.65;;;2.40;;
24030;SDS011;12240;51.142;22.486;2023-07-20T13:10:47;5.05;;;2.42;;
24030;SDS011;12240;51.142;22.486;2023-07-20T13:13:16;4.82;;;2.15;;
24030;SDS011;12240;51.142;22.486;2023-07-20T13:15:44;4.22;;;2.13;;
24030;SDS011;12240;51.142;22.486;2023-07-20T13:18:13;5.55;;;2.50;;
24030;SDS011;12240;51.142;22.486;2023-07-20T13:20:42;6.45;;;2.45;;
24030;SDS011;12240;51.142;22.486;2023-07-20T13:23:11;6.45;;;3.00;;
24030;SDS011;12240;51.142;22.486;2023-07-20T13:25:40;4.78;;;2.80;;
24030;SDS011;12240;51.142;22.486;2023-07-20T13:28:09;3.90;;;2.20;;
24030;SDS011;12240;51.142;22.486;2023-07-20T13:30:37;4.40;;;2.30;;
24030;SDS011;12240;51.142;22.486;2023-07-20T13:33:07;5.32;;;2.50;;
24030;SDS011;12240;51.142;22.486;2023-07-20T13:35:40;5.80;;;2.97;;
24030;SDS011;12240;51.142;22.486;2023-07-20T13:38:12;4.10;;;2.90;;
24030;SDS011;12240;51.142;22.486;2023-07-20T13:40:41;6.93;;;3.03;;
24030;SDS011;12240;51.142;22.486;2023-07-20T13:43:09;5.57;;;3.08;;
24030;SDS011;12240;51.142;22.486;2023-07-20T13:45:39;4.75;;;2.70;;
24030;SDS011;12240;51.142;22.486;2023-07-20T13:48:07;5.38;;;2.58;;
24030;SDS011;12240;51.142;22.486;2023-07-20T13:50:36;4.90;;;2.67;;
24030;SDS011;12240;51.142;22.486;2023-07-20T13:53:08;4.30;;;2.47;;
24030;SDS011;12240;51.142;22.486;2023-07-20T13:55:39;4.78;;;2.72;;
24030;SDS011;12240;51.142;22.486;2023-07-20T13:58:11;4.22;;;2.35;;
24030;SDS011;12240;51.142;22.486;2023-07-20T14:00:40;9.52;;;3.05;;
24030;SDS011;12240;51.142;22.486;2023-07-20T14:03:09;5.32;;;2.92;;
24030;SDS011;12240;51.142;22.486;2023-07-20T14:05:40;5.75;;;2.53;;
24030;SDS011;12240;51.142;22.486;2023-07-20T14:08:11;4.68;;;2.30;;
24030;SDS011;12240;51.142;22.486;2023-07-20T14:10:40;4.13;;;2.47;;
24030;SDS011;12240;51.142;22.486;2023-07-20T14:13:11;4.47;;;2.50;;
24030;SDS011;12240;51.142;22.486;2023-07-20T14:18:36;5.13;;;2.80;;
24030;SDS011;12240;51.142;22.486;2023-07-20T14:21:52;5.00;;;2.65;;
24030;SDS011;12240;51.142;22.486;2023-07-20T14:24:23;3.67;;;2.80;;
24030;SDS011;12240;51.142;22.486;2023-07-20T14:26:51;4.63;;;2.85;;
24030;SDS011;12240;51.142;22.486;2023-07-20T14:29:20;6.28;;;3.10;;
24030;SDS011;12240;51.142;22.486;2023-07-20T14:31:53;4.70;;;3.05;;
24030;SDS011;12240;51.142;22.486;2023-07-20T14:34:21;3.70;;;2.42;;
24030;SDS011;12240;51.142;22.486;2023-07-20T14:36:49;4.65;;;3.03;;
24030;SDS011;12240;51.142;22.486;2023-07-20T14:39:18;5.20;;;2.95;;
24030;SDS011;12240;51.142;22.486;2023-07-20T14:41:49;16.90;;;4.25;;
24030;SDS011;12240;51.142;22.486;2023-07-20T14:44:18;4.88;;;2.70;;
24030;SDS011;12240;51.142;22.486;2023-07-20T14:46:47;3.75;;;2.72;;
24030;SDS011;12240;51.142;22.486;2023-07-20T14:49:36;5.20;;;2.53;;
24030;SDS011;12240;51.142;22.486;2023-07-20T14:52:05;4.22;;;2.60;;
24030;SDS011;12240;51.142;22.486;2023-07-20T14:54:37;6.15;;;2.58;;
24030;SDS011;12240;51.142;22.486;2023-07-20T14:57:05;3.70;;;2.10;;
24030;SDS011;12240;51.142;22.486;2023-07-20T14:59:42;4.72;;;2.40;;
24030;SDS011;12240;51.142;22.486;2023-07-20T15:02:11;3.70;;;2.40;;
24030;SDS011;12240;51.142;22.486;2023-07-20T15:04:46;7.28;;;2.55;;
24030;SDS011;12240;51.142;22.486;2023-07-20T15:07:17;5.28;;;2.88;;
24030;SDS011;12240;51.142;22.486;2023-07-20T15:09:47;4.22;;;2.30;;
24030;SDS011;12240;51.142;22.486;2023-07-20T15:12:15;3.88;;;2.40;;
24030;SDS011;12240;51.142;22.486;2023-07-20T15:14:44;4.18;;;2.03;;
24030;SDS011;12240;51.142;22.486;2023-07-20T15:17:36;4.30;;;2.30;;
24030;SDS011;12240;51.142;22.486;2023-07-20T15:20:06;3.50;;;2.10;;